createdAt,value
2022-12-08T00:01:12.147Z,100406.22
2022-12-08T00:04:14.307Z,100398.16
2022-12-08T00:07:34.961Z,100391.72
2022-12-08T00:10:52.037Z,100397.50
2022-12-08T00:13:53.999Z,100394.50
2022-12-08T00:16:56.421Z,100395.19
2022-12-08T00:19:58.568Z,100392.19
2022-12-08T00:23:00.373Z,100389.03
2022-12-08T00:26:03.414Z,100394.59
2022-12-08T00:29:05.401Z,100394.69
2022-12-08T00:32:07.439Z,100407.19
2022-12-08T00:35:09.482Z,100394.06
2022-12-08T00:38:11.293Z,100394.25
2022-12-08T00:41:14.971Z,100405.47
2022-12-08T00:44:18.834Z,100409.28
2022-12-08T00:47:24.650Z,100400.41
2022-12-08T00:50:26.901Z,100411.00
2022-12-08T00:53:28.833Z,100410.34
2022-12-08T00:56:30.761Z,100419.06
2022-12-08T00:59:32.612Z,100411.19
2022-12-08T01:02:34.790Z,100410.31
2022-12-08T01:05:36.629Z,100407.72
2022-12-08T01:08:38.917Z,100412.72
2022-12-08T01:11:40.817Z,100412.00
2022-12-08T01:14:42.700Z,100404.94
2022-12-08T01:17:44.502Z,100410.97
2022-12-08T01:20:46.689Z,100411.94
2022-12-08T01:23:48.563Z,100407.25
2022-12-08T01:26:50.673Z,100404.09
2022-12-08T01:29:52.510Z,100404.47
2022-12-08T01:32:54.572Z,100410.16
2022-12-08T01:35:56.517Z,100403.69
2022-12-08T01:38:59.285Z,100406.22
2022-12-08T01:42:01.136Z,100406.66
2022-12-08T01:45:04.487Z,100405.25
2022-12-08T01:48:07.318Z,100401.66
2022-12-08T01:51:09.287Z,100402.91
2022-12-08T01:54:11.398Z,100402.97
2022-12-08T01:57:15.279Z,100405.12
2022-12-08T02:00:17.900Z,100400.66
2022-12-08T02:03:34.719Z,100399.56
2022-12-08T02:06:38.539Z,100392.72
2022-12-08T02:09:40.505Z,100389.87
2022-12-08T02:12:42.360Z,100386.22
2022-12-08T02:15:47.251Z,100384.94
2022-12-08T02:19:29.642Z,100371.84
2022-12-08T02:22:44.646Z,100385.34
2022-12-08T02:25:46.671Z,100381.25
2022-12-08T02:29:07.416Z,100381.88
2022-12-08T02:32:44.876Z,100378.25
2022-12-08T02:35:53.122Z,100381.72
2022-12-08T02:39:04.161Z,100391.97
2022-12-08T02:42:13.977Z,100372.53
2022-12-08T02:45:22.124Z,100376.34
2022-12-08T02:48:23.958Z,100366.91
2022-12-08T02:51:25.995Z,100360.47
2022-12-08T02:54:27.928Z,100368.12
2022-12-08T02:57:48.733Z,100362.41
2022-12-08T03:00:58.357Z,100362.41
2022-12-08T03:04:04.027Z,100356.09
2022-12-08T03:07:13.256Z,100356.09
2022-12-08T03:10:18.169Z,100355.87
2022-12-08T03:13:21.608Z,100359.56
2022-12-08T03:16:24.975Z,100350.22
2022-12-08T03:19:27.788Z,100353.25
2022-12-08T03:22:29.759Z,100353.41
2022-12-08T03:25:32.246Z,100358.13
2022-12-08T03:28:34.207Z,100352.50
2022-12-08T03:31:37.632Z,100352.69
2022-12-08T03:34:39.854Z,100350.66
2022-12-08T03:37:41.855Z,100353.94
2022-12-08T03:40:44.274Z,100361.50
2022-12-08T03:43:53.268Z,100354.06
2022-12-08T03:46:55.131Z,100354.69
2022-12-08T03:49:56.949Z,100369.88
2022-12-08T03:52:58.766Z,100362.84
2022-12-08T03:56:00.793Z,100344.38
2022-12-08T03:59:03.191Z,100356.00
2022-12-08T04:02:05.222Z,100356.78
2022-12-08T04:05:07.248Z,100348.09
2022-12-08T04:08:09.231Z,100351.19
2022-12-08T04:11:11.275Z,100345.19
2022-12-08T04:14:13.188Z,100349.50
2022-12-08T04:17:15.073Z,100345.37
2022-12-08T04:20:16.956Z,100338.91
2022-12-08T04:23:18.828Z,100332.16
2022-12-08T04:26:20.723Z,100327.72
2022-12-08T04:29:22.614Z,100326.00
2022-12-08T04:32:24.469Z,100326.31
2022-12-08T04:35:26.311Z,100330.41
2022-12-08T04:38:28.630Z,100326.84
2022-12-08T04:41:30.646Z,100327.41
2022-12-08T04:44:32.512Z,100332.59
2022-12-08T04:47:34.610Z,100331.59
2022-12-08T04:50:36.469Z,100321.13
2022-12-08T04:53:43.413Z,100327.06
2022-12-08T04:56:48.077Z,100310.63
2022-12-08T04:59:49.932Z,100329.25
2022-12-08T05:02:51.875Z,100317.63
2022-12-08T05:05:53.771Z,100321.81
2022-12-08T05:08:55.651Z,100326.94
2022-12-08T05:11:57.655Z,100336.94
2022-12-08T05:14:59.546Z,100334.47
2022-12-08T05:18:01.372Z,100333.72
2022-12-08T05:21:03.369Z,100336.78
2022-12-08T05:24:05.535Z,100334.63
2022-12-08T05:27:07.444Z,100334.84
2022-12-08T05:30:09.384Z,100330.66
2022-12-08T05:33:11.343Z,100335.13
2022-12-08T05:36:14.108Z,100328.47
2022-12-08T05:39:15.903Z,100322.44
2022-12-08T05:42:23.180Z,100319.13
2022-12-08T05:45:26.666Z,100318.50
2022-12-08T05:48:28.595Z,100319.22
2022-12-08T05:51:30.429Z,100298.50
2022-12-08T05:54:32.375Z,100304.03
2022-12-08T05:57:34.365Z,100315.19
2022-12-08T06:00:36.252Z,100312.25
2022-12-08T06:03:38.221Z,100327.94
2022-12-08T06:06:42.795Z,100325.13
2022-12-08T06:09:44.767Z,100312.75
2022-12-08T06:12:46.599Z,100321.25
2022-12-08T06:15:48.568Z,100324.97
2022-12-08T06:18:50.559Z,100327.69
2022-12-08T06:21:52.540Z,100334.69
2022-12-08T06:24:54.597Z,100341.03
2022-12-08T06:27:56.428Z,100338.69
2022-12-08T06:30:58.714Z,100337.91
2022-12-08T06:34:00.673Z,100340.53
2022-12-08T06:37:02.549Z,100329.25
2022-12-08T06:40:05.025Z,100344.16
2022-12-08T06:43:07.350Z,100348.03
2022-12-08T06:46:10.858Z,100348.84
2022-12-08T06:49:12.993Z,100343.38
2022-12-08T06:52:15.357Z,100341.63
2022-12-08T06:55:42.728Z,100338.47
2022-12-08T06:58:39.592Z,100334.84
2022-12-08T07:01:41.621Z,100346.81
2022-12-08T07:04:43.853Z,100336.19
2022-12-08T07:07:45.811Z,100348.19
2022-12-08T07:10:47.742Z,100347.97
2022-12-08T07:13:50.722Z,100348.50
2022-12-08T07:16:52.804Z,100340.59
2022-12-08T07:19:54.695Z,100335.34
2022-12-08T07:22:56.677Z,100332.28
2022-12-08T07:26:02.892Z,100341.53
2022-12-08T07:29:05.150Z,100341.75
2022-12-08T07:32:07.875Z,100337.34
2022-12-08T07:35:09.976Z,100339.41
2022-12-08T07:38:12.294Z,100331.06
2022-12-08T07:41:15.094Z,100334.75
2022-12-08T07:44:17.039Z,100340.28
2022-12-08T07:47:18.867Z,100335.50
2022-12-08T07:50:20.709Z,100341.47
2022-12-08T07:53:22.678Z,100340.44
2022-12-08T07:56:24.565Z,100342.91
2022-12-08T07:59:26.934Z,100316.03
2022-12-08T08:02:29.048Z,100328.44
2022-12-08T08:05:30.978Z,100327.06
2022-12-08T08:08:33.124Z,100333.09
2022-12-08T08:11:35.319Z,100336.06
2022-12-08T08:14:37.532Z,100332.59
2022-12-08T08:17:39.466Z,100331.63
2022-12-08T08:20:41.467Z,100331.25
2022-12-08T08:23:43.469Z,100319.84
2022-12-08T08:26:45.634Z,100320.66
2022-12-08T08:29:47.510Z,100328.00
2022-12-08T08:32:49.512Z,100313.50
2022-12-08T08:35:51.517Z,100306.47
2022-12-08T08:38:53.515Z,100316.31
2022-12-08T08:41:55.448Z,100328.09
2022-12-08T08:44:57.413Z,100324.13
2022-12-08T08:47:59.991Z,100327.31
2022-12-08T08:51:12.165Z,100321.66
2022-12-08T08:54:14.417Z,100320.03
2022-12-08T08:57:18.468Z,100316.62
2022-12-08T09:00:24.210Z,100327.81
2022-12-08T09:03:26.298Z,100326.84
2022-12-08T09:06:28.713Z,100306.16
2022-12-08T09:09:31.979Z,100297.91
2022-12-08T09:12:34.189Z,100305.00
2022-12-08T09:15:36.378Z,100296.81
2022-12-08T09:18:38.806Z,100314.38
2022-12-08T09:21:41.505Z,100310.72
2022-12-08T09:24:43.735Z,100286.44
2022-12-08T09:27:45.795Z,100281.69
2022-12-08T09:30:48.208Z,100291.16
2022-12-08T09:33:53.191Z,100291.25
2022-12-08T09:36:55.220Z,100299.03
2022-12-08T09:39:57.207Z,100293.50
2022-12-08T09:43:03.655Z,100298.19
2022-12-08T09:46:06.261Z,100286.34
2022-12-08T09:49:11.849Z,100282.78
2022-12-08T09:52:16.317Z,100275.63
2022-12-08T09:55:23.391Z,100253.84
2022-12-08T09:58:28.392Z,100253.97
2022-12-08T10:01:31.519Z,100250.16
2022-12-08T10:04:36.985Z,100254.53
2022-12-08T10:07:44.380Z,100247.44
2022-12-08T10:10:59.378Z,100250.41
2022-12-08T10:14:22.823Z,100254.78
2022-12-08T10:17:28.016Z,100246.16
2022-12-08T10:20:36.232Z,100257.19
2022-12-08T10:23:38.939Z,100252.72
2022-12-08T10:26:40.939Z,100252.19
2022-12-08T10:29:42.994Z,100252.44
2022-12-08T10:32:46.150Z,100244.63
2022-12-08T10:35:48.011Z,100243.31
2022-12-08T10:38:49.880Z,100229.22
2022-12-08T10:41:51.802Z,100224.09
2022-12-08T10:44:53.827Z,100216.22
2022-12-08T10:48:00.180Z,100219.31
2022-12-08T10:51:05.261Z,100206.28
2022-12-08T10:54:26.289Z,100208.12
2022-12-08T10:57:28.239Z,100195.16
2022-12-08T11:00:30.413Z,100190.91
2022-12-08T11:03:36.454Z,100184.78
2022-12-08T11:06:38.939Z,100184.13
2022-12-08T11:09:40.874Z,100186.37
2022-12-08T11:12:43.802Z,100178.81
2022-12-08T11:15:45.795Z,100168.44
2022-12-08T11:18:49.921Z,100160.88
2022-12-08T11:21:51.752Z,100164.69
2022-12-08T11:25:12.933Z,100162.16
2022-12-08T11:28:14.769Z,100153.84
2022-12-08T11:31:37.053Z,100151.94
2022-12-08T11:34:41.620Z,100146.38
2022-12-08T11:37:43.591Z,100125.94
2022-12-08T11:40:45.572Z,100127.59
2022-12-08T11:43:53.050Z,100117.22
2022-12-08T11:46:57.154Z,100099.13
2022-12-08T11:50:18.258Z,100097.31
2022-12-08T11:53:51.098Z,100093.50
2022-12-08T11:56:56.545Z,100089.00
2022-12-08T11:59:58.403Z,100086.75
2022-12-08T12:03:03.832Z,100086.66
2022-12-08T12:06:46.499Z,100087.66
2022-12-08T12:10:02.212Z,100088.16
2022-12-08T12:13:19.304Z,100087.38
2022-12-08T12:16:39.854Z,100079.03
2022-12-08T12:19:41.824Z,100090.63
2022-12-08T12:22:44.247Z,100080.72
2022-12-08T12:25:46.567Z,100079.94
2022-12-08T12:28:54.997Z,100084.72
2022-12-08T12:31:59.377Z,100087.03
2022-12-08T12:35:03.499Z,100092.00
2022-12-08T12:38:27.080Z,100087.03
2022-12-08T12:41:44.004Z,100095.09
2022-12-08T12:44:46.294Z,100098.16
2022-12-08T12:47:55.594Z,100092.88
2022-12-08T12:50:58.220Z,100092.56
2022-12-08T12:54:22.795Z,100058.75
2022-12-08T12:57:25.778Z,100086.38
2022-12-08T13:00:27.974Z,100073.28
2022-12-08T13:03:30.020Z,100052.75
2022-12-08T13:06:44.723Z,100066.12
2022-12-08T13:09:46.680Z,100052.22
2022-12-08T13:13:01.886Z,100053.16
2022-12-08T13:16:18.436Z,100052.97
2022-12-08T13:19:21.027Z,100062.66
2022-12-08T13:22:41.839Z,100055.69
2022-12-08T13:25:43.692Z,100059.66
2022-12-08T13:29:04.306Z,100054.59
2022-12-08T13:32:12.423Z,100049.03
2022-12-08T13:35:14.280Z,100051.53
2022-12-08T13:38:17.090Z,100052.31
2022-12-08T13:41:20.870Z,100052.72
2022-12-08T13:58:17.511Z,100052.22
2022-12-08T14:01:20.417Z,100058.78
2022-12-08T14:04:42.558Z,100050.91
2022-12-08T14:07:44.558Z,100050.87
2022-12-08T14:10:47.454Z,100045.16
2022-12-08T14:13:49.659Z,100051.66
2022-12-08T14:16:55.880Z,100050.63
2022-12-08T14:20:13.388Z,100051.78
2022-12-08T14:23:19.413Z,100058.28
2022-12-08T14:26:21.441Z,100051.31
2022-12-08T14:29:46.687Z,100052.09
2022-12-08T14:32:55.190Z,100057.81
2022-12-08T14:35:57.459Z,100058.34
2022-12-08T14:38:59.474Z,100065.69
2022-12-08T14:42:01.849Z,100057.75
2022-12-08T14:45:06.328Z,100054.16
2022-12-08T14:48:26.603Z,100068.19
2022-12-08T14:51:31.737Z,100068.13
2022-12-08T14:54:33.836Z,100056.59
2022-12-08T14:57:38.521Z,100058.03
2022-12-08T15:00:44.592Z,100058.00
2022-12-08T15:03:50.907Z,100056.69
2022-12-08T15:06:54.403Z,100052.28
2022-12-08T15:10:14.883Z,100047.94
2022-12-08T15:13:16.933Z,100051.94
2022-12-08T15:16:42.476Z,100044.06
2022-12-08T15:19:44.590Z,100048.38
2022-12-08T15:22:46.636Z,100042.81
2022-12-08T15:25:48.807Z,100048.13
2022-12-08T15:28:50.755Z,100041.28
2022-12-08T15:31:54.314Z,100049.28
2022-12-08T15:34:56.257Z,100039.84
2022-12-08T15:37:58.089Z,100046.50
2022-12-08T15:40:59.953Z,100041.84
2022-12-08T15:44:01.847Z,100028.25
2022-12-08T15:47:03.851Z,100026.50
2022-12-08T15:50:07.659Z,100017.97
2022-12-08T15:53:12.732Z,100009.00
2022-12-08T15:56:30.372Z,100002.56
2022-12-08T15:59:32.625Z,100008.44
2022-12-08T16:03:05.005Z,100015.72
2022-12-08T16:06:38.882Z,100015.91
2022-12-08T16:09:21.107Z,100011.53
2022-12-08T16:16:05.676Z,100034.69
2022-12-08T16:19:09.718Z,100035.00
2022-12-08T16:26:16.189Z,100025.91
2022-12-08T16:29:04.394Z,100028.22
2022-12-08T16:32:06.955Z,100023.31
2022-12-08T16:35:08.995Z,100012.38
2022-12-08T16:38:13.379Z,100015.97
2022-12-08T16:41:34.880Z,100011.19
2022-12-08T16:44:38.077Z,99998.03
2022-12-08T16:47:44.458Z,99991.19
2022-12-08T16:50:46.940Z,100011.69
2022-12-08T16:53:48.776Z,100009.25
2022-12-08T16:56:50.854Z,100014.34
2022-12-08T16:59:52.792Z,100021.94
2022-12-08T17:02:55.195Z,100016.75
2022-12-08T17:05:57.049Z,100030.19
2022-12-08T17:08:59.585Z,100022.03
2022-12-08T17:12:04.104Z,100027.81
2022-12-08T17:15:08.063Z,100028.41
2022-12-08T17:18:10.141Z,100009.50
2022-12-08T17:21:13.940Z,100015.72
2022-12-08T17:24:20.249Z,100017.94
2022-12-08T17:27:23.910Z,100012.16
2022-12-08T17:30:25.772Z,100026.47
2022-12-08T17:33:27.689Z,100025.69
2022-12-08T17:36:29.653Z,100030.22
2022-12-08T17:39:31.534Z,100036.91
2022-12-08T17:42:33.921Z,100032.38
2022-12-08T17:45:35.846Z,100002.28
2022-12-08T17:48:38.013Z,100010.59
2022-12-08T17:51:39.952Z,100001.19
2022-12-08T17:54:41.780Z,100007.59
2022-12-08T17:57:43.681Z,100004.75
2022-12-08T18:00:45.916Z,100006.81
2022-12-08T18:03:47.936Z,100002.09
2022-12-08T18:06:49.758Z,100009.09
2022-12-08T18:09:51.764Z,100018.75
2022-12-08T18:12:53.624Z,100014.66
2022-12-08T18:15:55.596Z,100005.12
2022-12-08T18:18:57.810Z,99997.50
2022-12-08T18:21:59.939Z,99998.53
2022-12-08T18:25:02.268Z,100001.66
2022-12-08T18:28:04.530Z,99999.41
2022-12-08T18:31:10.452Z,100000.28
2022-12-08T18:34:12.564Z,99994.00
2022-12-08T18:37:14.476Z,99994.13
2022-12-08T18:40:16.553Z,99995.94
2022-12-08T18:43:18.477Z,99997.59
2022-12-08T18:46:20.352Z,100003.06
2022-12-08T18:49:22.302Z,100010.84
2022-12-08T18:52:29.601Z,100007.69
2022-12-08T18:55:33.589Z,100007.69
2022-12-08T18:58:35.641Z,100005.66
2022-12-08T19:01:38.941Z,100003.53
2022-12-08T19:04:42.170Z,100004.22
2022-12-08T19:07:45.825Z,100005.41
2022-12-08T19:10:47.808Z,99990.50
2022-12-08T19:13:50.003Z,99998.69
2022-12-08T19:16:52.343Z,100002.31
2022-12-08T19:19:54.264Z,99991.63
2022-12-08T19:22:56.071Z,99997.69
2022-12-08T19:25:57.917Z,100001.88
2022-12-08T19:28:59.912Z,99994.88
2022-12-08T19:32:01.832Z,100005.06
2022-12-08T19:35:07.587Z,100012.34
2022-12-08T19:38:09.549Z,100013.56
2022-12-08T19:41:36.164Z,100011.34
2022-12-08T19:44:53.044Z,100008.34
2022-12-08T19:47:55.120Z,100011.34
2022-12-08T19:50:57.193Z,100008.97
2022-12-08T19:53:59.129Z,100003.47
2022-12-08T19:57:01.033Z,99991.06
2022-12-08T20:00:03.346Z,100003.22
2022-12-08T20:03:05.351Z,99994.06
2022-12-08T20:06:07.399Z,99991.88
2022-12-08T20:09:10.490Z,99979.41
2022-12-08T20:12:12.597Z,99991.22
2022-12-08T20:15:14.964Z,99988.66
2022-12-08T20:18:16.853Z,99981.94
2022-12-08T20:21:19.538Z,99985.16
2022-12-08T20:24:21.825Z,99979.13
2022-12-08T20:27:23.944Z,99973.13
2022-12-08T20:30:25.808Z,99967.09
2022-12-08T20:33:27.810Z,99974.69
2022-12-08T20:36:30.030Z,99966.97
2022-12-08T20:39:31.970Z,99964.63
2022-12-08T20:42:33.908Z,99974.34
2022-12-08T20:45:36.180Z,99975.16
2022-12-08T20:48:38.667Z,99983.66
2022-12-08T20:51:41.548Z,99979.88
2022-12-08T20:54:43.437Z,99982.72
2022-12-08T20:57:45.304Z,99993.09
2022-12-08T21:00:47.469Z,100000.25
2022-12-08T21:03:50.342Z,99999.81
2022-12-08T21:06:52.519Z,100001.31
2022-12-08T21:09:54.789Z,100004.56
2022-12-08T21:12:56.714Z,99999.94
2022-12-08T21:15:58.619Z,99998.94
2022-12-08T21:19:00.711Z,99997.56
2022-12-08T21:22:02.777Z,100000.75
2022-12-08T21:25:04.790Z,100006.81
2022-12-08T21:28:06.783Z,100013.81
2022-12-08T21:31:09.445Z,100009.00
2022-12-08T21:34:11.500Z,100005.66
2022-12-08T21:37:13.639Z,99998.81
2022-12-08T21:40:15.680Z,99991.63
2022-12-08T21:43:17.528Z,99972.41
2022-12-08T21:46:21.279Z,99966.38
2022-12-08T21:49:23.589Z,99971.37
2022-12-08T21:52:26.008Z,99961.03
2022-12-08T21:55:28.076Z,99966.62
2022-12-08T21:58:32.756Z,99962.66
2022-12-08T22:01:35.032Z,99973.66
2022-12-08T22:04:37.231Z,99975.72
2022-12-08T22:07:39.909Z,99973.78
2022-12-08T22:10:46.626Z,99982.97
2022-12-08T22:13:48.649Z,99977.66
2022-12-08T22:16:50.709Z,99974.66
2022-12-08T22:19:52.620Z,99964.41
2022-12-08T22:22:54.536Z,99962.53
2022-12-08T22:25:59.659Z,99970.16
2022-12-08T22:29:01.695Z,99968.44
2022-12-08T22:32:03.960Z,99981.16
2022-12-08T22:35:06.044Z,99991.72
2022-12-08T22:38:07.857Z,99995.88
2022-12-08T22:41:09.825Z,99987.09
2022-12-08T22:44:12.295Z,99982.47
2022-12-08T22:47:14.248Z,99983.00
2022-12-08T22:50:16.150Z,99967.75
2022-12-08T22:53:17.985Z,99978.69
2022-12-08T22:56:19.866Z,99982.81
2022-12-08T22:59:21.934Z,99974.91
2022-12-08T23:02:23.806Z,99977.66
2022-12-08T23:05:25.759Z,99974.81
2022-12-08T23:08:28.350Z,99983.31
2022-12-08T23:11:30.734Z,99977.44
2022-12-08T23:14:32.557Z,99974.72
2022-12-08T23:17:34.807Z,99967.81
2022-12-08T23:20:36.811Z,99975.72
2022-12-08T23:23:38.698Z,99970.63
2022-12-08T23:26:40.643Z,99976.78
2022-12-08T23:29:42.521Z,99966.72
2022-12-08T23:32:44.585Z,99964.78
2022-12-08T23:35:54.624Z,99958.38
2022-12-08T23:38:56.556Z,99961.16
2022-12-08T23:41:58.400Z,99974.59
2022-12-08T23:45:00.382Z,99986.03
2022-12-08T23:48:02.329Z,99977.06
2022-12-08T23:51:04.124Z,99967.78
2022-12-08T23:54:06.604Z,99958.06
2022-12-08T23:57:08.779Z,99954.31
